<?xml version="1.0" encoding="UTF-8" standalone="no" ?>
<gpx xmlns="http://www.topografix.com/GPX/1/1" xmlns:xsi="http://www.w3.org/2001/XMLSchema-instance" xsi:schemaLocation="http://www.topografix.com/GPX/1/1 http://www.topografix.com/GPX/1/1/gpx.xsd" version="1.1" creator="VisuGPX - https://www.visugpx.com">
  <metadata>
    <name>2026-03-16-46-granejouls</name>
    <desc><![CDATA[Petite randonnée de 8 km sans difficulté . Passage au Baylou et au pech Tondut sur des chemins du quercy blanc]]></desc>
  </metadata>
  <trk>
    <name><![CDATA[granejouls 8km-23545420]]></name>
    <trkseg>
      <trkpt lat="44.35456" lon="1.42664">
        <ele>299</ele>
        <time>2026-03-13T07:06:46Z</time>
      </trkpt>
      <trkpt lat="44.3543" lon="1.4269">
        <ele>298</ele>
        <time>2026-03-13T07:07:29Z</time>
      </trkpt>
      <trkpt lat="44.35378" lon="1.42691">
        <ele>296</ele>
        <time>2026-03-13T07:08:38Z</time>
      </trkpt>
      <trkpt lat="44.35352" lon="1.42801">
        <ele>296</ele>
        <time>2026-03-13T07:10:29Z</time>
      </trkpt>
      <trkpt lat="44.35323" lon="1.42855">
        <ele>295</ele>
        <time>2026-03-13T07:11:33Z</time>
      </trkpt>
      <trkpt lat="44.35311" lon="1.4293">
        <ele>294</ele>
        <time>2026-03-13T07:12:46Z</time>
      </trkpt>
      <trkpt lat="44.353" lon="1.42959">
        <ele>292</ele>
        <time>2026-03-13T07:13:18Z</time>
      </trkpt>
      <trkpt lat="44.35214" lon="1.42897">
        <ele>291</ele>
        <time>2026-03-13T07:15:27Z</time>
      </trkpt>
      <trkpt lat="44.35189" lon="1.42948">
        <ele>289</ele>
        <time>2026-03-13T07:16:26Z</time>
      </trkpt>
      <trkpt lat="44.35156" lon="1.42989">
        <ele>287</ele>
        <time>2026-03-13T07:17:25Z</time>
      </trkpt>
      <trkpt lat="44.35091" lon="1.43062">
        <ele>282</ele>
        <time>2026-03-13T07:19:16Z</time>
      </trkpt>
      <trkpt lat="44.3504" lon="1.43148">
        <ele>279</ele>
        <time>2026-03-13T07:21:03Z</time>
      </trkpt>
      <trkpt lat="44.35014" lon="1.43229">
        <ele>278</ele>
        <time>2026-03-13T07:22:27Z</time>
      </trkpt>
      <trkpt lat="44.35009" lon="1.43455">
        <ele>281</ele>
        <time>2026-03-13T07:26:03Z</time>
      </trkpt>
      <trkpt lat="44.35021" lon="1.43571">
        <ele>287</ele>
        <time>2026-03-13T07:27:55Z</time>
      </trkpt>
      <trkpt lat="44.35026" lon="1.43649">
        <ele>291</ele>
        <time>2026-03-13T07:29:10Z</time>
      </trkpt>
      <trkpt lat="44.35014" lon="1.43784">
        <ele>292</ele>
        <time>2026-03-13T07:31:19Z</time>
      </trkpt>
      <trkpt lat="44.3496" lon="1.43816">
        <ele>291</ele>
        <time>2026-03-13T07:32:38Z</time>
      </trkpt>
      <trkpt lat="44.34893" lon="1.43849">
        <ele>291</ele>
        <time>2026-03-13T07:34:13Z</time>
      </trkpt>
      <trkpt lat="44.34871" lon="1.43934">
        <ele>290</ele>
        <time>2026-03-13T07:35:39Z</time>
      </trkpt>
      <trkpt lat="44.34843" lon="1.44078">
        <ele>288</ele>
        <time>2026-03-13T07:38:01Z</time>
      </trkpt>
      <trkpt lat="44.34822" lon="1.44213">
        <ele>282</ele>
        <time>2026-03-13T07:40:13Z</time>
      </trkpt>
      <trkpt lat="44.34809" lon="1.44264">
        <ele>279</ele>
        <time>2026-03-13T07:41:05Z</time>
      </trkpt>
      <trkpt lat="44.34776" lon="1.4433">
        <ele>275</ele>
        <time>2026-03-13T07:42:22Z</time>
      </trkpt>
      <trkpt lat="44.34743" lon="1.44437">
        <ele>273</ele>
        <time>2026-03-13T07:44:13Z</time>
      </trkpt>
      <trkpt lat="44.34739" lon="1.44468">
        <ele>273</ele>
        <time>2026-03-13T07:44:43Z</time>
      </trkpt>
      <trkpt lat="44.34716" lon="1.44497">
        <ele>274</ele>
        <time>2026-03-13T07:45:24Z</time>
      </trkpt>
      <trkpt lat="44.34683" lon="1.44573">
        <ele>271</ele>
        <time>2026-03-13T07:46:49Z</time>
      </trkpt>
      <trkpt lat="44.34657" lon="1.44639">
        <ele>269</ele>
        <time>2026-03-13T07:48:01Z</time>
      </trkpt>
      <trkpt lat="44.34575" lon="1.44762">
        <ele>268</ele>
        <time>2026-03-13T07:50:41Z</time>
      </trkpt>
      <trkpt lat="44.3449" lon="1.4488">
        <ele>272</ele>
        <time>2026-03-13T07:53:21Z</time>
      </trkpt>
      <trkpt lat="44.34455" lon="1.44952">
        <ele>276</ele>
        <time>2026-03-13T07:54:44Z</time>
      </trkpt>
      <trkpt lat="44.34457" lon="1.44983">
        <ele>278</ele>
        <time>2026-03-13T07:55:14Z</time>
      </trkpt>
      <trkpt lat="44.34469" lon="1.45049">
        <ele>279</ele>
        <time>2026-03-13T07:56:19Z</time>
      </trkpt>
      <trkpt lat="44.34517" lon="1.4512">
        <ele>280</ele>
        <time>2026-03-13T07:57:52Z</time>
      </trkpt>
      <trkpt lat="44.34537" lon="1.45126">
        <ele>282</ele>
        <time>2026-03-13T07:58:20Z</time>
      </trkpt>
      <trkpt lat="44.34566" lon="1.45129">
        <ele>284</ele>
        <time>2026-03-13T07:58:58Z</time>
      </trkpt>
      <trkpt lat="44.34587" lon="1.45172">
        <ele>286</ele>
        <time>2026-03-13T07:59:48Z</time>
      </trkpt>
      <trkpt lat="44.34612" lon="1.45232">
        <ele>287</ele>
        <time>2026-03-13T08:00:54Z</time>
      </trkpt>
      <trkpt lat="44.34678" lon="1.45296">
        <ele>289</ele>
        <time>2026-03-13T08:02:41Z</time>
      </trkpt>
      <trkpt lat="44.34645" lon="1.45369">
        <ele>285</ele>
        <time>2026-03-13T08:04:04Z</time>
      </trkpt>
      <trkpt lat="44.34627" lon="1.45391">
        <ele>284</ele>
        <time>2026-03-13T08:04:36Z</time>
      </trkpt>
      <trkpt lat="44.34629" lon="1.45422">
        <ele>283</ele>
        <time>2026-03-13T08:05:05Z</time>
      </trkpt>
      <trkpt lat="44.3465" lon="1.45441">
        <ele>282</ele>
        <time>2026-03-13T08:05:39Z</time>
      </trkpt>
      <trkpt lat="44.34699" lon="1.45462">
        <ele>282</ele>
        <time>2026-03-13T08:06:47Z</time>
      </trkpt>
      <trkpt lat="44.34715" lon="1.45478">
        <ele>282</ele>
        <time>2026-03-13T08:07:14Z</time>
      </trkpt>
      <trkpt lat="44.34713" lon="1.45518">
        <ele>281</ele>
        <time>2026-03-13T08:07:52Z</time>
      </trkpt>
      <trkpt lat="44.34694" lon="1.45603">
        <ele>278</ele>
        <time>2026-03-13T08:09:17Z</time>
      </trkpt>
      <trkpt lat="44.34716" lon="1.45625">
        <ele>278</ele>
        <time>2026-03-13T08:09:53Z</time>
      </trkpt>
      <trkpt lat="44.34759" lon="1.45643">
        <ele>278</ele>
        <time>2026-03-13T08:10:53Z</time>
      </trkpt>
      <trkpt lat="44.34769" lon="1.45671">
        <ele>277</ele>
        <time>2026-03-13T08:11:23Z</time>
      </trkpt>
      <trkpt lat="44.34758" lon="1.45709">
        <ele>275</ele>
        <time>2026-03-13T08:12:02Z</time>
      </trkpt>
      <trkpt lat="44.34767" lon="1.45724">
        <ele>274</ele>
        <time>2026-03-13T08:12:20Z</time>
      </trkpt>
      <trkpt lat="44.3483" lon="1.4572">
        <ele>274</ele>
        <time>2026-03-13T08:13:45Z</time>
      </trkpt>
      <trkpt lat="44.34828" lon="1.45761">
        <ele>273</ele>
        <time>2026-03-13T08:14:24Z</time>
      </trkpt>
      <trkpt lat="44.34828" lon="1.4583">
        <ele>271</ele>
        <time>2026-03-13T08:15:30Z</time>
      </trkpt>
      <trkpt lat="44.34854" lon="1.45905">
        <ele>270</ele>
        <time>2026-03-13T08:16:49Z</time>
      </trkpt>
      <trkpt lat="44.3487" lon="1.45961">
        <ele>273</ele>
        <time>2026-03-13T08:17:47Z</time>
      </trkpt>
      <trkpt lat="44.34877" lon="1.46008">
        <ele>275</ele>
        <time>2026-03-13T08:18:33Z</time>
      </trkpt>
      <trkpt lat="44.34925" lon="1.46135">
        <ele>284</ele>
        <time>2026-03-13T08:20:50Z</time>
      </trkpt>
      <trkpt lat="44.34982" lon="1.46175">
        <ele>289</ele>
        <time>2026-03-13T08:22:15Z</time>
      </trkpt>
      <trkpt lat="44.34991" lon="1.4625">
        <ele>291</ele>
        <time>2026-03-13T08:23:27Z</time>
      </trkpt>
      <trkpt lat="44.34987" lon="1.46304">
        <ele>292</ele>
        <time>2026-03-13T08:24:19Z</time>
      </trkpt>
      <trkpt lat="44.35019" lon="1.46359">
        <ele>293</ele>
        <time>2026-03-13T08:25:27Z</time>
      </trkpt>
      <trkpt lat="44.35047" lon="1.46415">
        <ele>295</ele>
        <time>2026-03-13T08:26:32Z</time>
      </trkpt>
      <trkpt lat="44.35072" lon="1.46459">
        <ele>297</ele>
        <time>2026-03-13T08:27:26Z</time>
      </trkpt>
      <trkpt lat="44.35106" lon="1.46477">
        <ele>299</ele>
        <time>2026-03-13T08:28:14Z</time>
      </trkpt>
      <trkpt lat="44.3518" lon="1.46476">
        <ele>300</ele>
        <time>2026-03-13T08:29:53Z</time>
      </trkpt>
      <trkpt lat="44.35245" lon="1.46478">
        <ele>300</ele>
        <time>2026-03-13T08:31:20Z</time>
      </trkpt>
      <trkpt lat="44.3527" lon="1.46468">
        <ele>299</ele>
        <time>2026-03-13T08:31:54Z</time>
      </trkpt>
      <trkpt lat="44.35301" lon="1.46437">
        <ele>297</ele>
        <time>2026-03-13T08:32:45Z</time>
      </trkpt>
      <trkpt lat="44.35325" lon="1.46389">
        <ele>297</ele>
        <time>2026-03-13T08:33:41Z</time>
      </trkpt>
      <trkpt lat="44.35347" lon="1.46336">
        <ele>296</ele>
        <time>2026-03-13T08:34:40Z</time>
      </trkpt>
      <trkpt lat="44.35373" lon="1.46241">
        <ele>293</ele>
        <time>2026-03-13T08:36:17Z</time>
      </trkpt>
      <trkpt lat="44.35334" lon="1.46116">
        <ele>294</ele>
        <time>2026-03-13T08:38:27Z</time>
      </trkpt>
      <trkpt lat="44.35333" lon="1.46004">
        <ele>292</ele>
        <time>2026-03-13T08:40:14Z</time>
      </trkpt>
      <trkpt lat="44.35321" lon="1.45922">
        <ele>288</ele>
        <time>2026-03-13T08:41:33Z</time>
      </trkpt>
      <trkpt lat="44.35334" lon="1.45847">
        <ele>285</ele>
        <time>2026-03-13T08:42:47Z</time>
      </trkpt>
      <trkpt lat="44.35383" lon="1.45711">
        <ele>282</ele>
        <time>2026-03-13T08:45:12Z</time>
      </trkpt>
      <trkpt lat="44.35413" lon="1.45595">
        <ele>286</ele>
        <time>2026-03-13T08:47:10Z</time>
      </trkpt>
      <trkpt lat="44.35428" lon="1.45498">
        <ele>288</ele>
        <time>2026-03-13T08:48:45Z</time>
      </trkpt>
      <trkpt lat="44.35441" lon="1.45391">
        <ele>287</ele>
        <time>2026-03-13T08:50:28Z</time>
      </trkpt>
      <trkpt lat="44.35443" lon="1.45331">
        <ele>284</ele>
        <time>2026-03-13T08:51:26Z</time>
      </trkpt>
      <trkpt lat="44.35451" lon="1.45281">
        <ele>281</ele>
        <time>2026-03-13T08:52:15Z</time>
      </trkpt>
      <trkpt lat="44.35511" lon="1.45171">
        <ele>277</ele>
        <time>2026-03-13T08:54:27Z</time>
      </trkpt>
      <trkpt lat="44.35535" lon="1.45098">
        <ele>275</ele>
        <time>2026-03-13T08:55:43Z</time>
      </trkpt>
      <trkpt lat="44.35557" lon="1.4501">
        <ele>272</ele>
        <time>2026-03-13T08:57:12Z</time>
      </trkpt>
      <trkpt lat="44.35565" lon="1.44932">
        <ele>268</ele>
        <time>2026-03-13T08:58:27Z</time>
      </trkpt>
      <trkpt lat="44.35585" lon="1.44884">
        <ele>265</ele>
        <time>2026-03-13T08:59:20Z</time>
      </trkpt>
      <trkpt lat="44.35652" lon="1.4482">
        <ele>263</ele>
        <time>2026-03-13T09:01:09Z</time>
      </trkpt>
      <trkpt lat="44.35701" lon="1.44766">
        <ele>261</ele>
        <time>2026-03-13T09:02:32Z</time>
      </trkpt>
      <trkpt lat="44.35753" lon="1.44756">
        <ele>260</ele>
        <time>2026-03-13T09:03:42Z</time>
      </trkpt>
      <trkpt lat="44.35789" lon="1.44762">
        <ele>261</ele>
        <time>2026-03-13T09:04:30Z</time>
      </trkpt>
      <trkpt lat="44.35854" lon="1.44745">
        <ele>260</ele>
        <time>2026-03-13T09:05:59Z</time>
      </trkpt>
      <trkpt lat="44.35876" lon="1.4472">
        <ele>257</ele>
        <time>2026-03-13T09:06:36Z</time>
      </trkpt>
      <trkpt lat="44.35909" lon="1.44672">
        <ele>252</ele>
        <time>2026-03-13T09:07:40Z</time>
      </trkpt>
      <trkpt lat="44.35975" lon="1.44674">
        <ele>252</ele>
        <time>2026-03-13T09:09:08Z</time>
      </trkpt>
      <trkpt lat="44.35943" lon="1.44595">
        <ele>257</ele>
        <time>2026-03-13T09:10:35Z</time>
      </trkpt>
      <trkpt lat="44.35881" lon="1.44488">
        <ele>267</ele>
        <time>2026-03-13T09:12:46Z</time>
      </trkpt>
      <trkpt lat="44.35791" lon="1.44468">
        <ele>273</ele>
        <time>2026-03-13T09:14:48Z</time>
      </trkpt>
      <trkpt lat="44.35724" lon="1.44428">
        <ele>276</ele>
        <time>2026-03-13T09:16:25Z</time>
      </trkpt>
      <trkpt lat="44.35672" lon="1.44319">
        <ele>279</ele>
        <time>2026-03-13T09:18:30Z</time>
      </trkpt>
      <trkpt lat="44.35598" lon="1.44363">
        <ele>283</ele>
        <time>2026-03-13T09:20:17Z</time>
      </trkpt>
      <trkpt lat="44.35525" lon="1.44276">
        <ele>290</ele>
        <time>2026-03-13T09:22:25Z</time>
      </trkpt>
      <trkpt lat="44.35574" lon="1.44145">
        <ele>289</ele>
        <time>2026-03-13T09:24:46Z</time>
      </trkpt>
      <trkpt lat="44.35539" lon="1.43998">
        <ele>295</ele>
        <time>2026-03-13T09:27:14Z</time>
      </trkpt>
      <trkpt lat="44.35546" lon="1.43835">
        <ele>296</ele>
        <time>2026-03-13T09:29:50Z</time>
      </trkpt>
      <trkpt lat="44.35515" lon="1.43549">
        <ele>301</ele>
        <time>2026-03-13T09:34:26Z</time>
      </trkpt>
      <trkpt lat="44.35559" lon="1.43248">
        <ele>300</ele>
        <time>2026-03-13T09:39:19Z</time>
      </trkpt>
      <trkpt lat="44.35528" lon="1.43186">
        <ele>299</ele>
        <time>2026-03-13T09:40:31Z</time>
      </trkpt>
      <trkpt lat="44.3551" lon="1.43016">
        <ele>299</ele>
        <time>2026-03-13T09:43:15Z</time>
      </trkpt>
      <trkpt lat="44.35548" lon="1.4274">
        <ele>300</ele>
        <time>2026-03-13T09:47:43Z</time>
      </trkpt>
      <trkpt lat="44.35515" lon="1.42723">
        <ele>300</ele>
        <time>2026-03-13T09:48:30Z</time>
      </trkpt>
      <trkpt lat="44.35486" lon="1.42715">
        <ele>300</ele>
        <time>2026-03-13T09:49:10Z</time>
      </trkpt>
      <trkpt lat="44.35481" lon="1.42661">
        <ele>300</ele>
        <time>2026-03-13T09:50:02Z</time>
      </trkpt>
    </trkseg>
  </trk>
</gpx>